sensor_id;sensor_type;location;lat;lon;timestamp;temperature;humidity
66057;DHT22;52842;52.666;5.202;2023-02-15T00:00:26;17.20;58.30
66057;DHT22;52842;52.666;5.202;2023-02-15T00:02:53;17.20;58.30
66057;DHT22;52842;52.666;5.202;2023-02-15T00:05:21;17.10;58.30
66057;DHT22;52842;52.666;5.202;2023-02-15T00:07:48;17.10;58.40
66057;DHT22;52842;52.666;5.202;2023-02-15T00:10:14;17.10;58.40
66057;DHT22;52842;52.666;5.202;2023-02-15T00:12:42;17.10;58.40
66057;DHT22;52842;52.666;5.202;2023-02-15T00:15:09;17.00;57.80
66057;DHT22;52842;52.666;5.202;2023-02-15T00:17:37;17.00;57.80
66057;DHT22;52842;52.666;5.202;2023-02-15T00:20:05;17.00;57.90
66057;DHT22;52842;52.666;5.202;2023-02-15T00:22:33;17.00;58.00
66057;DHT22;52842;52.666;5.202;2023-02-15T00:25:00;17.00;58.00
66057;DHT22;52842;52.666;5.202;2023-02-15T00:27:26;17.00;58.10
66057;DHT22;52842;52.666;5.202;2023-02-15T00:29:53;17.00;58.00
66057;DHT22;52842;52.666;5.202;2023-02-15T00:32:20;17.10;57.90
66057;DHT22;52842;52.666;5.202;2023-02-15T00:34:46;17.20;57.80
66057;DHT22;52842;52.666;5.202;2023-02-15T00:37:13;17.20;57.70
66057;DHT22;52842;52.666;5.202;2023-02-15T00:39:41;17.40;57.30
66057;DHT22;52842;52.666;5.202;2023-02-15T00:42:07;17.70;57.10
66057;DHT22;52842;52.666;5.202;2023-02-15T00:44:34;18.20;56.20
66057;DHT22;52842;52.666;5.202;2023-02-15T00:47:01;18.80;55.00
66057;DHT22;52842;52.666;5.202;2023-02-15T00:49:28;19.30;53.70
66057;DHT22;52842;52.666;5.202;2023-02-15T00:51:54;19.80;52.50
66057;DHT22;52842;52.666;5.202;2023-02-15T00:54:21;20.30;51.30
66057;DHT22;52842;52.666;5.202;2023-02-15T00:56:49;20.70;50.20
66057;DHT22;52842;52.666;5.202;2023-02-15T00:59:16;21.00;49.20
66057;DHT22;52842;52.666;5.202;2023-02-15T01:01:42;21.20;48.70
66057;DHT22;52842;52.666;5.202;2023-02-15T01:04:09;21.30;48.10
66057;DHT22;52842;52.666;5.202;2023-02-15T01:06:36;21.30;47.80
66057;DHT22;52842;52.666;5.202;2023-02-15T01:09:02;21.20;48.00
66057;DHT22;52842;52.666;5.202;2023-02-15T01:11:29;20.80;48.10
66057;DHT22;52842;52.666;5.202;2023-02-15T01:13:57;20.40;48.80
66057;DHT22;52842;52.666;5.202;2023-02-15T01:16:25;20.10;49.40
66057;DHT22;52842;52.666;5.202;2023-02-15T01:18:52;19.80;50.30
66057;DHT22;52842;52.666;5.202;2023-02-15T01:21:21;19.60;51.30
66057;DHT22;52842;52.666;5.202;2023-02-15T01:23:48;19.30;52.00
66057;DHT22;52842;52.666;5.202;2023-02-15T01:26:15;19.10;52.60
66057;DHT22;52842;52.666;5.202;2023-02-15T01:28:41;18.90;53.10
66057;DHT22;52842;52.666;5.202;2023-02-15T01:31:10;18.70;53.40
66057;DHT22;52842;52.666;5.202;2023-02-15T01:33:37;18.50;53.70
66057;DHT22;52842;52.666;5.202;2023-02-15T01:36:04;18.40;54.20
66057;DHT22;52842;52.666;5.202;2023-02-15T01:38:31;18.40;54.00
66057;DHT22;52842;52.666;5.202;2023-02-15T01:40:57;18.70;53.70
66057;DHT22;52842;52.666;5.202;2023-02-15T01:43:46;18.90;53.10
66057;DHT22;52842;52.666;5.202;2023-02-15T01:46:15;19.20;52.50
66057;DHT22;52842;52.666;5.202;2023-02-15T01:48:43;19.40;51.90
66057;DHT22;52842;52.666;5.202;2023-02-15T01:51:11;19.60;51.50
66057;DHT22;52842;52.666;5.202;2023-02-15T01:53:38;19.80;50.90
66057;DHT22;52842;52.666;5.202;2023-02-15T01:56:09;20.00;50.50
66057;DHT22;52842;52.666;5.202;2023-02-15T01:58:37;20.10;50.00
66057;DHT22;52842;52.666;5.202;2023-02-15T02:01:04;20.30;49.80
66057;DHT22;52842;52.666;5.202;2023-02-15T02:03:36;20.40;49.50
66057;DHT22;52842;52.666;5.202;2023-02-15T02:06:05;20.60;49.10
66057;DHT22;52842;52.666;5.202;2023-02-15T02:08:31;20.80;48.80
66057;DHT22;52842;52.666;5.202;2023-02-15T02:10:58;21.10;48.20
66057;DHT22;52842;52.666;5.202;2023-02-15T02:13:25;21.30;47.70
66057;DHT22;52842;52.666;5.202;2023-02-15T02:15:52;21.50;47.10
66057;DHT22;52842;52.666;5.202;2023-02-15T02:18:28;21.70;46.70
66057;DHT22;52842;52.666;5.202;2023-02-15T02:21:11;21.80;46.10
66057;DHT22;52842;52.666;5.202;2023-02-15T02:23:45;21.90;46.00
66057;DHT22;52842;52.666;5.202;2023-02-15T02:29:18;21.50;46.30
66057;DHT22;52842;52.666;5.202;2023-02-15T02:31:56;21.10;47.10
66057;DHT22;52842;52.666;5.202;2023-02-15T02:34:30;20.60;48.00
66057;DHT22;52842;52.666;5.202;2023-02-15T02:36:58;20.30;48.40
66057;DHT22;52842;52.666;5.202;2023-02-15T02:39:28;20.00;48.90
66057;DHT22;52842;52.666;5.202;2023-02-15T02:41:58;19.70;49.60
66057;DHT22;52842;52.666;5.202;2023-02-15T02:44:29;19.50;50.10
66057;DHT22;52842;52.666;5.202;2023-02-15T02:46:58;19.20;50.90
66057;DHT22;52842;52.666;5.202;2023-02-15T02:49:31;19.10;51.60
66057;DHT22;52842;52.666;5.202;2023-02-15T02:51:58;18.90;52.10
66057;DHT22;52842;52.666;5.202;2023-02-15T02:54:25;18.80;52.50
66057;DHT22;52842;52.666;5.202;2023-02-15T02:56:51;18.60;52.70
66057;DHT22;52842;52.666;5.202;2023-02-15T02:59:19;18.70;52.70
66057;DHT22;52842;52.666;5.202;2023-02-15T03:01:48;18.90;52.40
66057;DHT22;52842;52.666;5.202;2023-02-15T03:04:17;19.20;51.80
66057;DHT22;52842;52.666;5.202;2023-02-15T03:06:48;19.40;51.30
66057;DHT22;52842;52.666;5.202;2023-02-15T03:09:18;19.60;50.60
66057;DHT22;52842;52.666;5.202;2023-02-15T03:11:47;19.80;50.10
66057;DHT22;52842;52.666;5.202;2023-02-15T03:14:14;20.00;49.80
66057;DHT22;52842;52.666;5.202;2023-02-15T03:16:43;20.10;49.30
66057;DHT22;52842;52.666;5.202;2023-02-15T03:19:12;20.30;49.00
66057;DHT22;52842;52.666;5.202;2023-02-15T03:21:41;20.40;48.70
66057;DHT22;52842;52.666;5.202;2023-02-15T03:24:10;20.50;48.40
66057;DHT22;52842;52.666;5.202;2023-02-15T03:26:38;20.60;48.20
66057;DHT22;52842;52.666;5.202;2023-02-15T03:29:06;20.60;48.00
66057;DHT22;52842;52.666;5.202;2023-02-15T03:31:35;20.70;47.80
66057;DHT22;52842;52.666;5.202;2023-02-15T03:34:04;20.70;47.60
66057;DHT22;52842;52.666;5.202;2023-02-15T03:36:34;20.80;47.60
66057;DHT22;52842;52.666;5.202;2023-02-15T03:39:03;20.90;47.40
66057;DHT22;52842;52.666;5.202;2023-02-15T03:41:33;20.90;47.20
66057;DHT22;52842;52.666;5.202;2023-02-15T03:44:03;21.00;47.20
66057;DHT22;52842;52.666;5.202;2023-02-15T03:46:32;21.00;47.10
66057;DHT22;52842;52.666;5.202;2023-02-15T03:49:01;21.00;46.90
66057;DHT22;52842;52.666;5.202;2023-02-15T03:51:31;21.10;46.90
66057;DHT22;52842;52.666;5.202;2023-02-15T03:54:04;21.10;46.70
66057;DHT22;52842;52.666;5.202;2023-02-15T03:56:34;21.20;46.70
66057;DHT22;52842;52.666;5.202;2023-02-15T03:59:02;21.20;46.40
66057;DHT22;52842;52.666;5.202;2023-02-15T04:01:47;21.20;46.40
66057;DHT22;52842;52.666;5.202;2023-02-15T04:04:25;21.30;46.20
66057;DHT22;52842;52.666;5.202;2023-02-15T04:06:52;21.30;46.10
66057;DHT22;52842;52.666;5.202;2023-02-15T04:09:19;21.40;46.00
66057;DHT22;52842;52.666;5.202;2023-02-15T04:12:05;21.50;45.90
66057;DHT22;52842;52.666;5.202;2023-02-15T04:14:32;21.50;45.80
66057;DHT22;52842;52.666;5.202;2023-02-15T04:17:16;21.50;45.70
66057;DHT22;52842;52.666;5.202;2023-02-15T04:19:43;21.50;45.60
66057;DHT22;52842;52.666;5.202;2023-02-15T04:22:27;21.60;45.60
66057;DHT22;52842;52.666;5.202;2023-02-15T04:25:11;21.60;45.60
66057;DHT22;52842;52.666;5.202;2023-02-15T04:27:39;21.70;45.30
66057;DHT22;52842;52.666;5.202;2023-02-15T04:30:07;21.70;45.20
66057;DHT22;52842;52.666;5.202;2023-02-15T04:32:33;21.70;45.10
66057;DHT22;52842;52.666;5.202;2023-02-15T04:35:00;21.80;45.20
66057;DHT22;52842;52.666;5.202;2023-02-15T04:37:27;21.80;45.00
66057;DHT22;52842;52.666;5.202;2023-02-15T04:39:54;21.80;45.00
66057;DHT22;52842;52.666;5.202;2023-02-15T04:42:21;21.80;44.80
66057;DHT22;52842;52.666;5.202;2023-02-15T04:44:48;21.90;44.80
66057;DHT22;52842;52.666;5.202;2023-02-15T04:47:15;21.90;44.80
66057;DHT22;52842;52.666;5.202;2023-02-15T04:49:42;21.90;44.80
66057;DHT22;52842;52.666;5.202;2023-02-15T04:52:09;21.90;44.80
66057;DHT22;52842;52.666;5.202;2023-02-15T04:54:35;21.90;44.80
66057;DHT22;52842;52.666;5.202;2023-02-15T04:57:03;21.90;44.80
66057;DHT22;52842;52.666;5.202;2023-02-15T04:59:30;21.90;44.70
66057;DHT22;52842;52.666;5.202;2023-02-15T05:01:58;21.90;44.60
66057;DHT22;52842;52.666;5.202;2023-02-15T05:04:24;21.90;44.60
66057;DHT22;52842;52.666;5.202;2023-02-15T05:06:51;22.00;44.60
66057;DHT22;52842;52.666;5.202;2023-02-15T05:09:17;22.00;44.60
66057;DHT22;52842;52.666;5.202;2023-02-15T05:11:44;22.00;44.60
66057;DHT22;52842;52.666;5.202;2023-02-15T05:14:11;22.00;44.40
66057;DHT22;52842;52.666;5.202;2023-02-15T05:16:38;22.00;44.40
66057;DHT22;52842;52.666;5.202;2023-02-15T05:19:06;22.00;44.30
66057;DHT22;52842;52.666;5.202;2023-02-15T05:21:33;22.10;44.30
66057;DHT22;52842;52.666;5.202;2023-02-15T05:23:59;22.10;44.20
66057;DHT22;52842;52.666;5.202;2023-02-15T05:26:46;22.10;44.10
66057;DHT22;52842;52.666;5.202;2023-02-15T05:29:30;22.20;44.00
66057;DHT22;52842;52.666;5.202;2023-02-15T05:31:57;22.20;43.90
66057;DHT22;52842;52.666;5.202;2023-02-15T05:34:25;22.20;43.80
66057;DHT22;52842;52.666;5.202;2023-02-15T05:36:51;22.30;43.90
66057;DHT22;52842;52.666;5.202;2023-02-15T05:39:18;22.20;43.70
66057;DHT22;52842;52.666;5.202;2023-02-15T05:41:45;22.20;43.80
66057;DHT22;52842;52.666;5.202;2023-02-15T05:44:11;22.30;43.80
66057;DHT22;52842;52.666;5.202;2023-02-15T05:46:38;22.30;43.70
66057;DHT22;52842;52.666;5.202;2023-02-15T05:49:04;22.30;43.70
66057;DHT22;52842;52.666;5.202;2023-02-15T05:51:33;22.30;43.60
66057;DHT22;52842;52.666;5.202;2023-02-15T05:53:59;22.30;43.70
66057;DHT22;52842;52.666;5.202;2023-02-15T05:56:26;22.30;43.70
66057;DHT22;52842;52.666;5.202;2023-02-15T05:58:52;22.30;43.70
66057;DHT22;52842;52.666;5.202;2023-02-15T06:01:20;22.30;43.70
66057;DHT22;52842;52.666;5.202;2023-02-15T06:03:48;22.30;43.60
66057;DHT22;52842;52.666;5.202;2023-02-15T06:06:14;22.30;43.60
66057;DHT22;52842;52.666;5.202;2023-02-15T06:08:43;22.40;43.60
66057;DHT22;52842;52.666;5.202;2023-02-15T06:11:09;22.30;43.60
66057;DHT22;52842;52.666;5.202;2023-02-15T06:13:37;22.30;43.50
66057;DHT22;52842;52.666;5.202;2023-02-15T06:16:03;22.30;43.60
66057;DHT22;52842;52.666;5.202;2023-02-15T06:18:30;22.30;43.60
66057;DHT22;52842;52.666;5.202;2023-02-15T06:20:57;22.30;43.60
66057;DHT22;52842;52.666;5.202;2023-02-15T06:23:23;22.30;43.60
66057;DHT22;52842;52.666;5.202;2023-02-15T06:25:51;22.20;43.70
66057;DHT22;52842;52.666;5.202;2023-02-15T06:28:18;22.20;43.70
66057;DHT22;52842;52.666;5.202;2023-02-15T06:30:45;22.20;43.70
66057;DHT22;52842;52.666;5.202;2023-02-15T06:33:12;22.20;43.70
66057;DHT22;52842;52.666;5.202;2023-02-15T06:35:38;22.20;43.70
66057;DHT22;52842;52.666;5.202;2023-02-15T06:38:05;22.20;43.70
66057;DHT22;52842;52.666;5.202;2023-02-15T06:40:32;22.20;43.80
66057;DHT22;52842;52.666;5.202;2023-02-15T06:43:00;22.20;43.80
66057;DHT22;52842;52.666;5.202;2023-02-15T06:45:26;22.20;43.90
66057;DHT22;52842;52.666;5.202;2023-02-15T06:47:53;22.20;43.90
66057;DHT22;52842;52.666;5.202;2023-02-15T06:50:20;22.20;44.10
66057;DHT22;52842;52.666;5.202;2023-02-15T06:52:46;22.20;44.40
66057;DHT22;52842;52.666;5.202;2023-02-15T06:55:13;22.20;44.50
66057;DHT22;52842;52.666;5.202;2023-02-15T06:57:40;22.20;44.50
66057;DHT22;52842;52.666;5.202;2023-02-15T07:00:08;22.30;44.50
66057;DHT22;52842;52.666;5.202;2023-02-15T07:02:35;22.30;44.40
66057;DHT22;52842;52.666;5.202;2023-02-15T07:05:02;22.30;44.40
66057;DHT22;52842;52.666;5.202;2023-02-15T07:07:30;22.40;44.40
66057;DHT22;52842;52.666;5.202;2023-02-15T07:09:56;22.40;44.60
66057;DHT22;52842;52.666;5.202;2023-02-15T07:12:23;22.40;44.60
66057;DHT22;52842;52.666;5.202;2023-02-15T07:15:09;22.40;44.80
66057;DHT22;52842;52.666;5.202;2023-02-15T07:17:36;22.40;44.80
66057;DHT22;52842;52.666;5.202;2023-02-15T07:20:03;22.40;44.80
66057;DHT22;52842;52.666;5.202;2023-02-15T07:22:30;22.40;44.80
66057;DHT22;52842;52.666;5.202;2023-02-15T07:24:56;22.50;44.90
66057;DHT22;52842;52.666;5.202;2023-02-15T07:27:23;22.50;44.90
66057;DHT22;52842;52.666;5.202;2023-02-15T07:29:50;22.50;44.90
66057;DHT22;52842;52.666;5.202;2023-02-15T07:32:18;22.50;45.00
66057;DHT22;52842;52.666;5.202;2023-02-15T07:34:44;22.50;45.10
66057;DHT22;52842;52.666;5.202;2023-02-15T07:37:11;22.50;45.00
66057;DHT22;52842;52.666;5.202;2023-02-15T07:39:38;22.50;45.00
66057;DHT22;52842;52.666;5.202;2023-02-15T07:42:04;22.60;45.00
66057;DHT22;52842;52.666;5.202;2023-02-15T07:44:31;22.60;45.10
66057;DHT22;52842;52.666;5.202;2023-02-15T07:46:58;22.70;45.00
66057;DHT22;52842;52.666;5.202;2023-02-15T07:49:26;22.70;45.00
66057;DHT22;52842;52.666;5.202;2023-02-15T07:51:53;22.60;45.10
66057;DHT22;52842;52.666;5.202;2023-02-15T07:54:20;22.60;45.10
66057;DHT22;52842;52.666;5.202;2023-02-15T07:56:46;22.50;45.10
66057;DHT22;52842;52.666;5.202;2023-02-15T07:59:13;22.50;45.40
66057;DHT22;52842;52.666;5.202;2023-02-15T08:01:40;22.60;45.50
66057;DHT22;52842;52.666;5.202;2023-02-15T08:04:07;22.50;45.60
66057;DHT22;52842;52.666;5.202;2023-02-15T08:06:37;22.60;45.50
66057;DHT22;52842;52.666;5.202;2023-02-15T08:09:04;22.60;45.50
66057;DHT22;52842;52.666;5.202;2023-02-15T08:11:31;22.60;45.50
66057;DHT22;52842;52.666;5.202;2023-02-15T08:14:05;22.70;45.50
66057;DHT22;52842;52.666;5.202;2023-02-15T08:16:33;22.70;45.40
66057;DHT22;52842;52.666;5.202;2023-02-15T08:19:01;22.70;45.50
66057;DHT22;52842;52.666;5.202;2023-02-15T08:21:29;22.70;45.40
66057;DHT22;52842;52.666;5.202;2023-02-15T08:23:57;22.70;45.40
66057;DHT22;52842;52.666;5.202;2023-02-15T08:26:24;22.70;45.50
66057;DHT22;52842;52.666;5.202;2023-02-15T08:28:51;22.70;45.40
66057;DHT22;52842;52.666;5.202;2023-02-15T08:31:19;22.80;45.40
66057;DHT22;52842;52.666;5.202;2023-02-15T08:33:46;22.80;45.40
66057;DHT22;52842;52.666;5.202;2023-02-15T08:36:14;22.80;45.40
66057;DHT22;52842;52.666;5.202;2023-02-15T08:38:41;22.80;45.30
66057;DHT22;52842;52.666;5.202;2023-02-15T08:41:10;22.80;45.30
66057;DHT22;52842;52.666;5.202;2023-02-15T08:43:37;22.90;45.30
66057;DHT22;52842;52.666;5.202;2023-02-15T08:46:04;22.80;45.20
66057;DHT22;52842;52.666;5.202;2023-02-15T08:48:31;22.80;45.10
66057;DHT22;52842;52.666;5.202;2023-02-15T08:50:57;22.80;45.10
66057;DHT22;52842;52.666;5.202;2023-02-15T08:53:24;22.90;45.30
66057;DHT22;52842;52.666;5.202;2023-02-15T08:55:54;22.90;45.20
66057;DHT22;52842;52.666;5.202;2023-02-15T08:58:22;22.90;45.20
66057;DHT22;52842;52.666;5.202;2023-02-15T09:00:49;22.90;45.30
66057;DHT22;52842;52.666;5.202;2023-02-15T09:03:16;22.90;45.30
66057;DHT22;52842;52.666;5.202;2023-02-15T09:05:43;22.80;45.20
66057;DHT22;52842;52.666;5.202;2023-02-15T09:08:09;22.80;45.40
66057;DHT22;52842;52.666;5.202;2023-02-15T09:10:36;22.70;45.50
66057;DHT22;52842;52.666;5.202;2023-02-15T09:13:03;22.70;45.60
66057;DHT22;52842;52.666;5.202;2023-02-15T09:15:31;22.70;45.70
66057;DHT22;52842;52.666;5.202;2023-02-15T09:17:57;22.60;46.00
66057;DHT22;52842;52.666;5.202;2023-02-15T09:20:27;22.60;46.10
66057;DHT22;52842;52.666;5.202;2023-02-15T09:22:54;22.50;46.30
66057;DHT22;52842;52.666;5.202;2023-02-15T09:25:21;22.50;46.40
66057;DHT22;52842;52.666;5.202;2023-02-15T09:27:47;22.50;46.40
66057;DHT22;52842;52.666;5.202;2023-02-15T09:30:14;22.50;46.50
66057;DHT22;52842;52.666;5.202;2023-02-15T09:32:42;22.50;46.40
66057;DHT22;52842;52.666;5.202;2023-02-15T09:35:11;22.50;46.40
66057;DHT22;52842;52.666;5.202;2023-02-15T09:37:38;22.50;46.50
66057;DHT22;52842;52.666;5.202;2023-02-15T09:40:05;22.50;46.50
66057;DHT22;52842;52.666;5.202;2023-02-15T09:42:35;22.50;46.50
66057;DHT22;52842;52.666;5.202;2023-02-15T09:47:59;22.50;46.50
66057;DHT22;52842;52.666;5.202;2023-02-15T09:50:30;22.50;46.50
66057;DHT22;52842;52.666;5.202;2023-02-15T09:53:03;22.50;47.10
66057;DHT22;52842;52.666;5.202;2023-02-15T09:55:38;22.60;46.50
66057;DHT22;52842;52.666;5.202;2023-02-15T09:58:11;22.60;46.50
66057;DHT22;52842;52.666;5.202;2023-02-15T10:00:45;22.60;46.40
66057;DHT22;52842;52.666;5.202;2023-02-15T10:03:17;22.60;46.30
66057;DHT22;52842;52.666;5.202;2023-02-15T10:05:51;22.60;46.30
66057;DHT22;52842;52.666;5.202;2023-02-15T10:08:37;22.60;46.40
66057;DHT22;52842;52.666;5.202;2023-02-15T10:11:08;22.60;46.40
66057;DHT22;52842;52.666;5.202;2023-02-15T10:13:51;22.50;46.60
66057;DHT22;52842;52.666;5.202;2023-02-15T10:16:21;22.50;46.70
66057;DHT22;52842;52.666;5.202;2023-02-15T10:18:54;22.50;46.70
66057;DHT22;52842;52.666;5.202;2023-02-15T10:21:30;22.50;46.70
66057;DHT22;52842;52.666;5.202;2023-02-15T10:24:05;22.60;46.80
66057;DHT22;52842;52.666;5.202;2023-02-15T10:26:33;22.50;46.70
66057;DHT22;52842;52.666;5.202;2023-02-15T10:29:03;22.50;46.80
66057;DHT22;52842;52.666;5.202;2023-02-15T10:31:34;22.50;46.80
66057;DHT22;52842;52.666;5.202;2023-02-15T10:34:09;22.50;46.90
66057;DHT22;52842;52.666;5.202;2023-02-15T10:36:42;22.50;46.90
66057;DHT22;52842;52.666;5.202;2023-02-15T10:39:14;22.50;47.10
66057;DHT22;52842;52.666;5.202;2023-02-15T10:41:46;22.50;47.10
66057;DHT22;52842;52.666;5.202;2023-02-15T10:44:24;22.50;47.10
66057;DHT22;52842;52.666;5.202;2023-02-15T10:47:08;22.40;47.00
66057;DHT22;52842;52.666;5.202;2023-02-15T10:49:53;22.40;47.10
66057;DHT22;52842;52.666;5.202;2023-02-15T10:52:29;22.40;47.30
66057;DHT22;52842;52.666;5.202;2023-02-15T10:55:02;22.40;47.50
66057;DHT22;52842;52.666;5.202;2023-02-15T10:57:33;22.40;47.60
66057;DHT22;52842;52.666;5.202;2023-02-15T11:00:05;22.30;47.60
66057;DHT22;52842;52.666;5.202;2023-02-15T11:02:41;22.40;47.60
66057;DHT22;52842;52.666;5.202;2023-02-15T11:05:19;22.40;47.70
66057;DHT22;52842;52.666;5.202;2023-02-15T11:07:49;22.40;47.60
66057;DHT22;52842;52.666;5.202;2023-02-15T11:10:22;22.40;47.70
66057;DHT22;52842;52.666;5.202;2023-02-15T11:12:49;22.40;47.70
66057;DHT22;52842;52.666;5.202;2023-02-15T11:15:17;22.30;47.70
66057;DHT22;52842;52.666;5.202;2023-02-15T11:17:47;22.30;47.80
66057;DHT22;52842;52.666;5.202;2023-02-15T11:20:17;22.30;47.80
66057;DHT22;52842;52.666;5.202;2023-02-15T11:22:48;22.30;47.90
66057;DHT22;52842;52.666;5.202;2023-02-15T11:25:16;22.30;47.80
66057;DHT22;52842;52.666;5.202;2023-02-15T11:27:44;22.30;48.00
66057;DHT22;52842;52.666;5.202;2023-02-15T11:30:13;22.30;48.00
66057;DHT22;52842;52.666;5.202;2023-02-15T11:32:41;22.30;48.00
66057;DHT22;52842;52.666;5.202;2023-02-15T11:35:11;22.20;48.10
66057;DHT22;52842;52.666;5.202;2023-02-15T11:37:44;21.90;48.60
66057;DHT22;52842;52.666;5.202;2023-02-15T11:40:17;21.50;49.10
66057;DHT22;52842;52.666;5.202;2023-02-15T11:42:46;21.20;49.80
66057;DHT22;52842;52.666;5.202;2023-02-15T11:45:18;20.90;50.40
66057;DHT22;52842;52.666;5.202;2023-02-15T11:47:46;20.70;51.00
66057;DHT22;52842;52.666;5.202;2023-02-15T11:50:13;20.50;51.60
66057;DHT22;52842;52.666;5.202;2023-02-15T11:52:40;20.30;52.10
66057;DHT22;52842;52.666;5.202;2023-02-15T11:55:09;20.10;52.40
66057;DHT22;52842;52.666;5.202;2023-02-15T11:57:40;20.00;52.70
66057;DHT22;52842;52.666;5.202;2023-02-15T12:00:10;19.90;52.80
66057;DHT22;52842;52.666;5.202;2023-02-15T12:02:39;19.80;53.00
66057;DHT22;52842;52.666;5.202;2023-02-15T12:05:10;19.70;53.30
66057;DHT22;52842;52.666;5.202;2023-02-15T12:07:40;19.60;53.20
66057;DHT22;52842;52.666;5.202;2023-02-15T12:10:13;19.50;53.10
66057;DHT22;52842;52.666;5.202;2023-02-15T12:12:44;19.40;53.30
66057;DHT22;52842;52.666;5.202;2023-02-15T12:15:11;19.40;53.60
66057;DHT22;52842;52.666;5.202;2023-02-15T12:17:39;19.30;53.70
66057;DHT22;52842;52.666;5.202;2023-02-15T12:20:07;19.20;54.00
66057;DHT22;52842;52.666;5.202;2023-02-15T12:22:49;19.20;54.30
66057;DHT22;52842;52.666;5.202;2023-02-15T12:25:20;19.20;54.50
66057;DHT22;52842;52.666;5.202;2023-02-15T12:27:48;19.10;54.40
66057;DHT22;52842;52.666;5.202;2023-02-15T12:30:18;19.10;54.60
66057;DHT22;52842;52.666;5.202;2023-02-15T12:32:48;19.00;54.80
66057;DHT22;52842;52.666;5.202;2023-02-15T12:35:19;19.00;55.10
66057;DHT22;52842;52.666;5.202;2023-02-15T12:37:51;19.00;55.40
66057;DHT22;52842;52.666;5.202;2023-02-15T12:40:19;18.90;55.10
66057;DHT22;52842;52.666;5.202;2023-02-15T12:42:46;18.90;55.40
66057;DHT22;52842;52.666;5.202;2023-02-15T12:45:22;18.80;55.30
66057;DHT22;52842;52.666;5.202;2023-02-15T12:47:53;18.80;55.40
66057;DHT22;52842;52.666;5.202;2023-02-15T12:50:34;18.70;55.60
66057;DHT22;52842;52.666;5.202;2023-02-15T12:53:06;18.70;55.80
66057;DHT22;52842;52.666;5.202;2023-02-15T12:55:33;18.70;55.90
66057;DHT22;52842;52.666;5.202;2023-02-15T12:58:07;18.60;55.90
66057;DHT22;52842;52.666;5.202;2023-02-15T13:00:35;18.60;56.10
66057;DHT22;52842;52.666;5.202;2023-02-15T13:03:02;18.60;56.30
66057;DHT22;52842;52.666;5.202;2023-02-15T13:05:30;18.50;56.30
66057;DHT22;52842;52.666;5.202;2023-02-15T13:07:58;18.50;56.40
66057;DHT22;52842;52.666;5.202;2023-02-15T13:10:27;18.50;56.50
66057;DHT22;52842;52.666;5.202;2023-02-15T13:12:54;18.40;56.60
66057;DHT22;52842;52.666;5.202;2023-02-15T13:15:31;18.40;56.70
66057;DHT22;52842;52.666;5.202;2023-02-15T13:18:00;18.40;56.80
66057;DHT22;52842;52.666;5.202;2023-02-15T13:20:28;18.40;56.80
66057;DHT22;52842;52.666;5.202;2023-02-15T13:22:57;18.30;56.80
66057;DHT22;52842;52.666;5.202;2023-02-15T13:25:25;18.30;56.80
66057;DHT22;52842;52.666;5.202;2023-02-15T13:27:52;18.30;56.90
66057;DHT22;52842;52.666;5.202;2023-02-15T13:30:25;18.20;57.00
66057;DHT22;52842;52.666;5.202;2023-02-15T13:32:53;18.30;57.20
66057;DHT22;52842;52.666;5.202;2023-02-15T13:35:22;18.20;57.00
66057;DHT22;52842;52.666;5.202;2023-02-15T13:40:33;18.20;57.10
66057;DHT22;52842;52.666;5.202;2023-02-15T13:43:03;18.10;57.30
66057;DHT22;52842;52.666;5.202;2023-02-15T13:45:37;18.10;57.50
66057;DHT22;52842;52.666;5.202;2023-02-15T13:48:09;18.10;57.50
66057;DHT22;52842;52.666;5.202;2023-02-15T13:50:47;18.10;57.60
66057;DHT22;52842;52.666;5.202;2023-02-15T13:53:24;18.00;57.60
66057;DHT22;52842;52.666;5.202;2023-02-15T13:55:52;18.00;57.60
66057;DHT22;52842;52.666;5.202;2023-02-15T13:58:27;18.00;57.70
66057;DHT22;52842;52.666;5.202;2023-02-15T14:01:00;18.00;57.80
66057;DHT22;52842;52.666;5.202;2023-02-15T14:06:19;18.10;58.20
66057;DHT22;52842;52.666;5.202;2023-02-15T14:08:54;18.40;58.00
66057;DHT22;52842;52.666;5.202;2023-02-15T14:11:30;18.70;57.40
66057;DHT22;52842;52.666;5.202;2023-02-15T14:14:05;19.00;56.80
66057;DHT22;52842;52.666;5.202;2023-02-15T14:16:39;19.30;56.60
66057;DHT22;52842;52.666;5.202;2023-02-15T14:19:13;19.60;55.30
66057;DHT22;52842;52.666;5.202;2023-02-15T14:21:45;19.90;54.60
66057;DHT22;52842;52.666;5.202;2023-02-15T14:24:19;20.20;54.10
66057;DHT22;52842;52.666;5.202;2023-02-15T14:26:51;20.30;53.50
66057;DHT22;52842;52.666;5.202;2023-02-15T14:29:22;20.30;53.40
66057;DHT22;52842;52.666;5.202;2023-02-15T14:31:52;20.10;53.70
66057;DHT22;52842;52.666;5.202;2023-02-15T14:34:21;20.00;54.20
66057;DHT22;52842;52.666;5.202;2023-02-15T14:36:50;19.90;55.00
66057;DHT22;52842;52.666;5.202;2023-02-15T14:39:21;19.80;54.70
66057;DHT22;52842;52.666;5.202;2023-02-15T14:42:08;19.70;55.00
66057;DHT22;52842;52.666;5.202;2023-02-15T14:44:37;19.70;55.20
66057;DHT22;52842;52.666;5.202;2023-02-15T14:47:06;19.60;55.40
66057;DHT22;52842;52.666;5.202;2023-02-15T14:49:35;19.60;55.50
66057;DHT22;52842;52.666;5.202;2023-02-15T14:52:05;19.60;55.60
66057;DHT22;52842;52.666;5.202;2023-02-15T14:54:52;19.60;55.70
66057;DHT22;52842;52.666;5.202;2023-02-15T14:57:26;19.60;55.80
66057;DHT22;52842;52.666;5.202;2023-02-15T14:59:54;19.60;55.80
66057;DHT22;52842;52.666;5.202;2023-02-15T15:02:23;19.60;55.80
66057;DHT22;52842;52.666;5.202;2023-02-15T15:04:55;19.60;55.90
66057;DHT22;52842;52.666;5.202;2023-02-15T15:07:24;19.60;55.90
66057;DHT22;52842;52.666;5.202;2023-02-15T15:09:58;19.60;55.90
66057;DHT22;52842;52.666;5.202;2023-02-15T15:12:38;19.60;55.90
66057;DHT22;52842;52.666;5.202;2023-02-15T15:15:05;19.60;55.90
66057;DHT22;52842;52.666;5.202;2023-02-15T15:25:46;19.70;55.90
66057;DHT22;52842;52.666;5.202;2023-02-15T15:30:54;19.70;55.90
66057;DHT22;52842;52.666;5.202;2023-02-15T15:36:14;19.80;55.90
66057;DHT22;52842;52.666;5.202;2023-02-15T15:38:49;19.80;55.90
66057;DHT22;52842;52.666;5.202;2023-02-15T15:41:27;19.80;55.90
66057;DHT22;52842;52.666;5.202;2023-02-15T15:44:11;19.80;55.80
66057;DHT22;52842;52.666;5.202;2023-02-15T15:46:51;19.90;55.80
66057;DHT22;52842;52.666;5.202;2023-02-15T15:49:24;19.90;55.90
66057;DHT22;52842;52.666;5.202;2023-02-15T15:51:53;19.90;55.90
66057;DHT22;52842;52.666;5.202;2023-02-15T15:54:20;19.90;55.80
66057;DHT22;52842;52.666;5.202;2023-02-15T15:56:50;20.00;55.70
66057;DHT22;52842;52.666;5.202;2023-02-15T15:59:18;20.00;55.60
66057;DHT22;52842;52.666;5.202;2023-02-15T16:01:46;19.90;55.50
66057;DHT22;52842;52.666;5.202;2023-02-15T16:04:14;19.90;55.50
66057;DHT22;52842;52.666;5.202;2023-02-15T16:06:49;19.90;55.40
66057;DHT22;52842;52.666;5.202;2023-02-15T16:09:16;19.90;55.40